KFIG

Clearfield-Lawrence Airport

Clearfield, Pennsylvania, USA
METAR KFIG 201954Z AUTO VRB04KT 10SM OVC024 22/18 A3011 RMK AO2 SLP187 T02170178
Observed Flight Rules
Aug-20 @ 19:54 UTC (36 minutes ago) Marginal Visual Flight Rules
Wind Visibility Clouds
Variable at 4 knots 10 miles
  • Overcast at 2,400' AGL
Temperatures Readings
Current 22°C / 72°F
Dewpoint 18°C / 64°F
Humidity 78%
Altimeter 30.11" Hg
Pressure 1018.7 hPa
Elevation 462
METAR KFIG 201954Z AUTO VRB04KT 10SM OVC024 22/18 A3011 RMK AO2 SLP187 T02170178
Observed Flight Rules
Aug-20 @ 19:54 UTC
(36 minutes ago)
MVFR
Wind Visibility
Variable at 4 knots 10 miles
Clouds
  • Overcast at 2,400' AGL
Temperature Dewpoint
22°C / 72°F 18°C / 64°F
Humidity Altimeter Pressure
78% 30.11" Hg 1018.7 hPa